Terminal Aerodrome Forecast
Issued by NWS

Home | Current Version | Previous Version | Graphics & Text | Print | Product List | Glossary On
Versions: 1 2 3 4 5 6 7 8 9 10 11 12 13 14 15 16 17 18 19 20 21 22 23 24
598
FTUS43 KFGF 151544 AAB
TAFBJI
TAF AMD
KBJI 151544Z 1516/1612 00000KT 4SM -SN OVC010
      TEMPO 1518/1522 P6SM NSW
     FM152200 14004KT P6SM OVC015
      TEMPO 1600/1601 1SM -SN OVC015
     FM160200 12006KT 2SM -SN OVC020
     FM161000 12007KT 3SM -SN OVC010=

USA.gov is the U.S. government's official web portal to all federal, state and local government web resources and services.